Moon — SFC6412 — position and weather

sailwx.info

Track history (hours):
 
Tides and Currents Weather Stations Pressure Air Temp Water Temp Dewpoint Dewpoint Depression Visibility Wind Speed Wind Dir Waves Ship Positions

Moon

Last reported at 2017-Sep-28 23:02 UTC. Time now 2017-Oct-18 16:39 UTC.
Position N 37°55' W 122°23'.
Warning: this ship's position is 19 days out of date.

Length 12 m.

Type: Sailing vessel. MMSI: 265525820.

Date/timePositionNaut miles runAvg speedWind from/ knotsBaromVisibWave heightAir tempDewpointWater temp
2017-Sep-28 23:02N 37°55' W 122°23'0 0.0
2017-Sep-28 22:59N 37°55' W 122°23'0 0.0
2017-Sep-28 22:29N 37°55' W 122°23'0 0.0
2017-Sep-28 21:59N 37°55' W 122°23'0 0.0
2017-Sep-28 21:29N 37°55' W 122°23'0 0.0
2017-Sep-28 20:56N 37°55' W 122°23'0 0.0
2017-Sep-28 20:29N 37°55' W 122°23'0 0.0
2017-Sep-28 19:59N 37°55' W 122°23'0 0.0
2017-Sep-28 19:17N 37°55' W 122°23'0 0.0
2017-Sep-28 18:59N 37°55' W 122°23'0 0.0
2017-Sep-28 18:29N 37°55' W 122°23'0 0.0
2017-Sep-28 17:48N 37°55' W 122°23'0 0.0
2017-Sep-28 17:31N 37°55' W 122°23'0 0.0
2017-Sep-28 17:00N 37°55' W 122°23'0 0.0
2017-Sep-28 16:31N 37°55' W 122°23'0 0.0
2017-Sep-28 16:01N 37°55' W 122°23'0 0.0
2017-Sep-28 15:25N 37°55' W 122°23'0 0.0
2017-Sep-28 15:01N 37°55' W 122°23'0 0.0
2017-Sep-28 14:31N 37°55' W 122°23'0 0.0
2017-Sep-28 13:55N 37°55' W 122°23'0 0.0
2017-Sep-28 13:28N 37°55' W 122°23'0 0.0
2017-Sep-28 13:01N 37°55' W 122°23'0 0.0
2017-Sep-28 12:31N 37°55' W 122°23'0 0.0
2017-Sep-28 11:58N 37°55' W 122°23'0 0.0
2017-Sep-28 11:28N 37°55' W 122°23'0 0.0
2017-Sep-28 11:01N 37°55' W 122°23'0 0.0
2017-Sep-28 10:28N 37°55' W 122°23'0 0.0
2017-Sep-28 10:01N 37°55' W 122°23'0 0.0
2017-Sep-28 09:31N 37°55' W 122°23'0 0.0
2017-Sep-28 09:01N 37°55' W 122°23'0 0.0
2017-Sep-28 08:28N 37°55' W 122°23'0 0.0
2017-Sep-28 08:01N 37°55' W 122°23'0 0.0
2017-Sep-28 07:31N 37°55' W 122°23'0 0.0
2017-Sep-28 07:01N 37°55' W 122°23'0 0.0
2017-Sep-28 06:28N 37°55' W 122°23'0 0.0
2017-Sep-28 05:58N 37°55' W 122°23'0 0.0
2017-Sep-28 05:28N 37°55' W 122°23'0 0.0
2017-Sep-28 04:55N 37°55' W 122°23'0 0.0
2017-Sep-28 04:31N 37°55' W 122°23'0 0.0
2017-Sep-28 03:58N 37°55' W 122°23'0 0.0
2017-Sep-28 03:31N 37°55' W 122°23'0 0.0
2017-Sep-28 03:01N 37°55' W 122°23'0 0.0
2017-Sep-28 02:31N 37°55' W 122°23'0 0.0
2017-Sep-28 02:01N 37°55' W 122°23'0 0.0
2017-Sep-28 01:31N 37°55' W 122°23'0 0.0
2017-Sep-28 00:58N 37°55' W 122°23'0 0.2
2017-Sep-28 00:31N 37°54' W 122°23'0 0.0
2017-Sep-27 23:58N 37°54' W 122°23'0 0.1
2017-Sep-27 23:25N 37°54' W 122°23'0 0.1
2017-Sep-27 22:58N 37°54' W 122°23'0 0.1
2017-Sep-27 22:25N 37°54' W 122°23'0 0.0
2017-Sep-27 21:58N 37°54' W 122°23'0 0.1
2017-Sep-27 21:28N 37°54' W 122°23'0 0.0
2017-Sep-27 20:58N 37°54' W 122°23'0 0.0
2017-Sep-27 20:30N 37°54' W 122°23'3 5.2
2017-Sep-27 20:00N 37°53' W 122°26'1 0.1
2017-Sep-26 21:36N 37°52' W 122°27'1 6.3
2017-Sep-26 21:30N 37°51' W 122°27'3 6.3
2017-Sep-26 21:00N 37°49' W 122°30'3 6.1
2017-Sep-26 20:28N 37°50' W 122°34'14 6.0
2017-Sep-26 18:09N 37°56' W 122°50'1 5.9
2017-Sep-26 18:00N 37°56' W 122°51'3 5.5
2017-Sep-26 17:30N 37°58' W 122°54'3 5.8
2017-Sep-26 17:00N 37°59' W 122°57'1 0.8
2017-Sep-26 15:12N 37°60' W 122°58'0 0.0
2017-Sep-26 15:00N 37°60' W 122°58'0 0.0
2017-Sep-26 14:24N 37°60' W 122°58'0 0.0
2017-Sep-26 14:00N 37°60' W 122°58'0 0.0
2017-Sep-26 13:24N 37°60' W 122°58'0 0.0
2017-Sep-26 13:00N 37°60' W 122°58'0 0.0
2017-Sep-26 12:30N 37°60' W 122°58'0 0.0
2017-Sep-26 12:00N 37°60' W 122°58'0 0.0
2017-Sep-26 11:30N 37°60' W 122°58'0 0.0
2017-Sep-26 11:00N 37°60' W 122°58'0 0.0
2017-Sep-26 10:30N 37°60' W 122°58'0 0.0
2017-Sep-26 10:00N 37°60' W 122°58'0 0.0
2017-Sep-26 09:30N 37°60' W 122°58'0 0.0
2017-Sep-26 09:00N 37°60' W 122°58'0 0.0
2017-Sep-26 08:30N 37°60' W 122°58'0 0.0
2017-Sep-26 08:00N 37°60' W 122°58'0 0.0
2017-Sep-26 07:30N 37°60' W 122°58'0 0.9
2017-Sep-26 07:00N 37°60' W 122°58'3 4.1
2017-Sep-26 06:22N 37°59' W 123°01'2 5.8
2017-Sep-26 06:00N 37°60' W 123°04'3 5.8
2017-Sep-26 05:30N 38°02' W 123°07'3 5.7
2017-Sep-26 05:00N 38°03' W 123°10'2 4.7
2017-Sep-26 04:30N 38°05' W 123°12'3 5.0
2017-Sep-26 03:59N 38°07' W 123°14'3 6.9
2017-Sep-26 03:30N 38°10' W 123°16'4 7.2
2017-Sep-26 03:00N 38°12' W 123°20'4 7.3
2017-Sep-26 02:30N 38°15' W 123°23'4 7.2
2017-Sep-26 02:00N 38°17' W 123°26'4 7.3
2017-Sep-26 01:30N 38°20' W 123°30'4 7.6
2017-Sep-26 01:00N 38°22' W 123°33'4 7.9
2017-Sep-26 00:30N 38°25' W 123°37'4 8.0
2017-Sep-26 00:00N 38°28' W 123°40'6 7.7
2017-Sep-25 23:10N 38°33' W 123°46'2 7.9
2017-Sep-25 22:58N 38°33' W 123°47'  
2017-Sep-21 15:53N 46°18' W 124°02'1 1.6
2017-Sep-21 15:30N 46°18' W 124°03'1 1.6
2017-Sep-21 15:00N 46°17' W 124°03'0 0.0
2017-Sep-21 02:38N 46°17' W 124°03'0 0.0
2017-Sep-21 01:38N 46°17' W 124°03'0 0.0
2017-Sep-21 01:29N 46°17' W 124°03'0 0.0
2017-Sep-21 00:59N 46°17' W 124°03'1 1.1
2017-Sep-21 00:30N 46°17' W 124°02'4 7.8
2017-Sep-21 00:00N 46°14' W 123°59'4 8.5
2017-Sep-20 23:30N 46°11' W 123°54'2 3.3
2017-Sep-20 23:00N 46°11' W 123°51'  
Track history (hours):
 
Tides and Currents Weather Stations Pressure Air Temp Water Temp Dewpoint Dewpoint Depression Visibility Wind Speed Wind Dir Waves Ship Positions

Moon

Last reported at 2017-Sep-28 23:02 UTC. Time now 2017-Oct-18 16:39 UTC.
Position N 37°55' W 122°23'.
Warning: this ship's position is 19 days out of date.

Length 12 m.

Type: Sailing vessel. MMSI: 265525820.

Date/timePositionNaut miles runAvg speedWind from/ knotsBaromVisibWave heightAir tempDewpointWater temp
2017-Sep-28 23:02N 37°55' W 122°23'0 0.0
2017-Sep-28 22:59N 37°55' W 122°23'0 0.0
2017-Sep-28 22:29N 37°55' W 122°23'0 0.0
2017-Sep-28 21:59N 37°55' W 122°23'0 0.0
2017-Sep-28 21:29N 37°55' W 122°23'0 0.0
2017-Sep-28 20:56N 37°55' W 122°23'0 0.0
2017-Sep-28 20:29N 37°55' W 122°23'0 0.0
2017-Sep-28 19:59N 37°55' W 122°23'0 0.0
2017-Sep-28 19:17N 37°55' W 122°23'0 0.0
2017-Sep-28 18:59N 37°55' W 122°23'0 0.0
2017-Sep-28 18:29N 37°55' W 122°23'0 0.0
2017-Sep-28 17:48N 37°55' W 122°23'0 0.0
2017-Sep-28 17:31N 37°55' W 122°23'0 0.0
2017-Sep-28 17:00N 37°55' W 122°23'0 0.0
2017-Sep-28 16:31N 37°55' W 122°23'0 0.0
2017-Sep-28 16:01N 37°55' W 122°23'0 0.0
2017-Sep-28 15:25N 37°55' W 122°23'0 0.0
2017-Sep-28 15:01N 37°55' W 122°23'0 0.0
2017-Sep-28 14:31N 37°55' W 122°23'0 0.0
2017-Sep-28 13:55N 37°55' W 122°23'0 0.0
2017-Sep-28 13:28N 37°55' W 122°23'0 0.0
2017-Sep-28 13:01N 37°55' W 122°23'0 0.0
2017-Sep-28 12:31N 37°55' W 122°23'0 0.0
2017-Sep-28 11:58N 37°55' W 122°23'0 0.0
2017-Sep-28 11:28N 37°55' W 122°23'0 0.0
2017-Sep-28 11:01N 37°55' W 122°23'0 0.0
2017-Sep-28 10:28N 37°55' W 122°23'0 0.0
2017-Sep-28 10:01N 37°55' W 122°23'0 0.0
2017-Sep-28 09:31N 37°55' W 122°23'0 0.0
2017-Sep-28 09:01N 37°55' W 122°23'0 0.0
2017-Sep-28 08:28N 37°55' W 122°23'0 0.0
2017-Sep-28 08:01N 37°55' W 122°23'0 0.0
2017-Sep-28 07:31N 37°55' W 122°23'0 0.0
2017-Sep-28 07:01N 37°55' W 122°23'0 0.0
2017-Sep-28 06:28N 37°55' W 122°23'0 0.0
2017-Sep-28 05:58N 37°55' W 122°23'0 0.0
2017-Sep-28 05:28N 37°55' W 122°23'0 0.0
2017-Sep-28 04:55N 37°55' W 122°23'0 0.0
2017-Sep-28 04:31N 37°55' W 122°23'0 0.0
2017-Sep-28 03:58N 37°55' W 122°23'0 0.0
2017-Sep-28 03:31N 37°55' W 122°23'0 0.0
2017-Sep-28 03:01N 37°55' W 122°23'0 0.0
2017-Sep-28 02:31N 37°55' W 122°23'0 0.0
2017-Sep-28 02:01N 37°55' W 122°23'0 0.0
2017-Sep-28 01:31N 37°55' W 122°23'0 0.0
2017-Sep-28 00:58N 37°55' W 122°23'0 0.2
2017-Sep-28 00:31N 37°54' W 122°23'0 0.0
2017-Sep-27 23:58N 37°54' W 122°23'0 0.1
2017-Sep-27 23:25N 37°54' W 122°23'0 0.1
2017-Sep-27 22:58N 37°54' W 122°23'0 0.1
2017-Sep-27 22:25N 37°54' W 122°23'0 0.0
2017-Sep-27 21:58N 37°54' W 122°23'0 0.1
2017-Sep-27 21:28N 37°54' W 122°23'0 0.0
2017-Sep-27 20:58N 37°54' W 122°23'0 0.0
2017-Sep-27 20:30N 37°54' W 122°23'3 5.2
2017-Sep-27 20:00N 37°53' W 122°26'1 0.1
2017-Sep-26 21:36N 37°52' W 122°27'1 6.3
2017-Sep-26 21:30N 37°51' W 122°27'3 6.3
2017-Sep-26 21:00N 37°49' W 122°30'3 6.1
2017-Sep-26 20:28N 37°50' W 122°34'14 6.0
2017-Sep-26 18:09N 37°56' W 122°50'1 5.9
2017-Sep-26 18:00N 37°56' W 122°51'3 5.5
2017-Sep-26 17:30N 37°58' W 122°54'3 5.8
2017-Sep-26 17:00N 37°59' W 122°57'1 0.8
2017-Sep-26 15:12N 37°60' W 122°58'0 0.0
2017-Sep-26 15:00N 37°60' W 122°58'0 0.0
2017-Sep-26 14:24N 37°60' W 122°58'0 0.0
2017-Sep-26 14:00N 37°60' W 122°58'0 0.0
2017-Sep-26 13:24N 37°60' W 122°58'0 0.0
2017-Sep-26 13:00N 37°60' W 122°58'0 0.0
2017-Sep-26 12:30N 37°60' W 122°58'0 0.0
2017-Sep-26 12:00N 37°60' W 122°58'0 0.0
2017-Sep-26 11:30N 37°60' W 122°58'0 0.0
2017-Sep-26 11:00N 37°60' W 122°58'0 0.0
2017-Sep-26 10:30N 37°60' W 122°58'0 0.0
2017-Sep-26 10:00N 37°60' W 122°58'0 0.0
2017-Sep-26 09:30N 37°60' W 122°58'0 0.0
2017-Sep-26 09:00N 37°60' W 122°58'0 0.0
2017-Sep-26 08:30N 37°60' W 122°58'0 0.0
2017-Sep-26 08:00N 37°60' W 122°58'0 0.0
2017-Sep-26 07:30N 37°60' W 122°58'0 0.9
2017-Sep-26 07:00N 37°60' W 122°58'3 4.1
2017-Sep-26 06:22N 37°59' W 123°01'2 5.8
2017-Sep-26 06:00N 37°60' W 123°04'3 5.8
2017-Sep-26 05:30N 38°02' W 123°07'3 5.7
2017-Sep-26 05:00N 38°03' W 123°10'2 4.7
2017-Sep-26 04:30N 38°05' W 123°12'3 5.0
2017-Sep-26 03:59N 38°07' W 123°14'3 6.9
2017-Sep-26 03:30N 38°10' W 123°16'4 7.2
2017-Sep-26 03:00N 38°12' W 123°20'4 7.3
2017-Sep-26 02:30N 38°15' W 123°23'4 7.2
2017-Sep-26 02:00N 38°17' W 123°26'4 7.3
2017-Sep-26 01:30N 38°20' W 123°30'4 7.6
2017-Sep-26 01:00N 38°22' W 123°33'4 7.9
2017-Sep-26 00:30N 38°25' W 123°37'4 8.0
2017-Sep-26 00:00N 38°28' W 123°40'6 7.7
2017-Sep-25 23:10N 38°33' W 123°46'2 7.9
2017-Sep-25 22:58N 38°33' W 123°47'  
2017-Sep-21 15:53N 46°18' W 124°02'1 1.6
2017-Sep-21 15:30N 46°18' W 124°03'1 1.6
2017-Sep-21 15:00N 46°17' W 124°03'0 0.0
2017-Sep-21 02:38N 46°17' W 124°03'0 0.0
2017-Sep-21 01:38N 46°17' W 124°03'0 0.0
2017-Sep-21 01:29N 46°17' W 124°03'0 0.0
2017-Sep-21 00:59N 46°17' W 124°03'1 1.1
2017-Sep-21 00:30N 46°17' W 124°02'4 7.8
2017-Sep-21 00:00N 46°14' W 123°59'4 8.5
2017-Sep-20 23:30N 46°11' W 123°54'2 3.3
2017-Sep-20 23:00N 46°11' W 123°51'  

Dump ship's entire track history